Hanseatic Scout — V2BM2 — position and weather

sailwx.info

Track history (hours):
 
Tides and Currents Weather Stations Pressure Air Temp Water Temp Dewpoint Dewpoint Depression Visibility Wind Speed Wind Dir Waves Ship Positions

Hanseatic Scout

Last reported at 2016-May-24 01:33 UTC. Time now 2016-May-24 15:46 UTC.
Position N 49°26' E 000°49'.

Length 89 m; draft 3.2 m.

Type: Ship. MMSI: 304867000.

Date/timePositionNaut miles runAvg speedWind from/ knotsBaromVisibWave heightAir tempDewpointWater temp
2016-May-24 01:33N 49°26' E 000°49'6 6.2
2016-May-24 00:33N 49°29' E 000°40'7 7.0
2016-May-23 23:33N 49°29' E 000°29'1212.1
2016-May-23 22:34N 49°26' E 000°11'1110.7
2016-May-23 21:33N 49°28' W 000°05'0 0.3
2016-May-23 20:33N 49°28' W 000°05'0 0.0
2016-May-23 19:34N 49°28' W 000°05'0 0.0
2016-May-23 18:34N 49°28' W 000°05'0 0.0
2016-May-23 17:34N 49°28' W 000°05'0 0.0
2016-May-23 16:33N 49°28' W 000°05'0 0.0
2016-May-23 15:34N 49°28' W 000°05'0 0.0
2016-May-23 14:34N 49°28' W 000°05'0 0.0
2016-May-23 13:34N 49°28' W 000°05'0 0.0
2016-May-23 12:33N 49°28' W 000°05'0 0.0
2016-May-23 11:34N 49°28' W 000°05'0 0.0
2016-May-23 10:34N 49°28' W 000°05'0 0.0
2016-May-23 09:34N 49°28' W 000°05'0 0.0
2016-May-23 08:34N 49°28' W 000°05'0 0.0
2016-May-23 07:34N 49°28' W 000°05'0 0.0
2016-May-23 06:34N 49°28' W 000°05'0 0.0
2016-May-23 05:33N 49°28' W 000°05'0 0.0
2016-May-23 04:34N 49°28' W 000°05'0 0.0
2016-May-23 03:33N 49°28' W 000°05'0 0.0
2016-May-23 02:34N 49°28' W 000°05'0 0.0
2016-May-23 01:33N 49°28' W 000°05'0 0.0
2016-May-23 00:33N 49°28' W 000°05'0 0.0
2016-May-22 23:33N 49°28' W 000°05'0 0.0
2016-May-22 22:33N 49°28' W 000°05'0 0.0
2016-May-22 21:33N 49°28' W 000°05'0 0.0
2016-May-22 20:34N 49°28' W 000°05'0 0.0
2016-May-22 19:34N 49°28' W 000°05'0 0.0
2016-May-22 18:33N 49°28' W 000°05'0 0.1
2016-May-22 17:33N 49°28' W 000°05'0 0.0
2016-May-22 16:34N 49°28' W 000°05'0 0.0
2016-May-22 15:33N 49°28' W 000°05'0 0.0
2016-May-22 14:34N 49°28' W 000°05'0 0.0
2016-May-22 13:34N 49°28' W 000°05'0 0.1
2016-May-22 12:34N 49°28' W 000°05'0 0.0
2016-May-22 11:34N 49°28' W 000°05'0 0.1
2016-May-22 10:34N 49°28' W 000°05'0 0.0
2016-May-22 09:34N 49°28' W 000°05'0 0.0
2016-May-22 08:33N 49°28' W 000°05'0 0.1
2016-May-22 07:34N 49°28' W 000°05'7 6.9
2016-May-22 06:33N 49°34' W 000°12'1212.2
2016-May-22 05:33N 49°46' W 000°12'1212.2
2016-May-22 04:33N 49°58' W 000°09'1212.4
2016-May-22 03:33N 50°10' W 000°07'1212.1
2016-May-22 02:34N 50°22' W 000°05'8 8.5
2016-May-22 01:33N 50°29' E 000°03'7 6.9
2016-May-22 00:30N 50°32' E 000°14'6 6.9
2016-May-21 23:33N 50°34' E 000°24'10 7.2
2016-May-21 22:10N 50°38' E 000°38'31 8.6
2016-May-21 18:32N 50°58' E 001°16'1313.9
2016-May-21 17:34N 51°07' E 001°33'1212.3
2016-May-21 16:34N 51°15' E 001°47'1111.0
2016-May-21 15:33N 51°25' E 001°55'10 9.8
2016-May-21 14:34N 51°33' E 002°04'9 9.5
2016-May-21 13:34N 51°40' E 002°15'8210.9
2016-May-21 06:04N 52°31' E 003°59'611.5
2016-May-21 05:33N 52°31' E 004°08'1111.5
2016-May-21 04:33N 52°29' E 004°27'6 6.1
2016-May-21 03:33N 52°28' E 004°36'0 0.0
2016-May-21 02:32N 52°28' E 004°36'0 0.0
2016-May-21 01:32N 52°28' E 004°36'0 0.0
2016-May-21 00:32N 52°28' E 004°36'0 0.0
2016-May-20 23:32N 52°28' E 004°36'0 0.0
2016-May-20 22:32N 52°28' E 004°36'0 0.0
2016-May-20 21:32N 52°28' E 004°36'0 0.0
2016-May-20 20:32N 52°28' E 004°36'0 0.0
2016-May-20 19:32N 52°28' E 004°36'0 0.0
2016-May-20 18:32N 52°28' E 004°36'0 0.0
2016-May-20 17:32N 52°28' E 004°36'0 0.0
2016-May-20 16:32N 52°28' E 004°36'0 0.0
2016-May-20 15:32N 52°28' E 004°36'0 0.0
2016-May-20 14:32N 52°28' E 004°36'0 0.0
2016-May-20 13:32N 52°28' E 004°36'0 0.0
2016-May-20 12:32N 52°28' E 004°36'0 0.0
2016-May-20 11:32N 52°28' E 004°36'0 0.1
2016-May-20 10:32N 52°28' E 004°36'0 0.0
2016-May-20 09:32N 52°28' E 004°36'1 1.0
2016-May-20 08:34N 52°28' E 004°35'7 7.4
2016-May-20 07:33N 52°30' E 004°23'2 1.7
2016-May-20 06:31N 52°31' E 004°21'0 0.0
2016-May-20 05:31N 52°31' E 004°21'0 0.0
2016-May-20 04:28N 52°31' E 004°21'0 0.0
2016-May-20 03:22N 52°31' E 004°21'0 0.0
2016-May-20 02:31N 52°31' E 004°21'0 0.0
2016-May-20 01:31N 52°31' E 004°21'0 0.0
2016-May-20 00:31N 52°31' E 004°21'0 0.0
2016-May-19 23:25N 52°31' E 004°21'0 0.0
2016-May-19 22:31N 52°31' E 004°21'0 0.1
2016-May-19 21:28N 52°31' E 004°21'0 0.0
2016-May-19 20:31N 52°31' E 004°21'0 0.0
2016-May-19 19:31N 52°31' E 004°21'0 0.1
2016-May-19 18:31N 52°31' E 004°21'0 0.0
2016-May-19 17:31N 52°31' E 004°21'0 0.0
2016-May-19 16:31N 52°31' E 004°21'0 0.0
2016-May-19 15:31N 52°31' E 004°21'0 0.0
2016-May-19 14:19N 52°31' E 004°21'0 0.0
2016-May-19 13:25N 52°31' E 004°21'0 0.0
2016-May-19 12:31N 52°31' E 004°21'0 0.0
2016-May-19 11:31N 52°31' E 004°21'0 0.1
2016-May-19 10:31N 52°31' E 004°21'0 0.0
2016-May-19 09:31N 52°31' E 004°21'0 0.0
2016-May-19 08:31N 52°31' E 004°21'0 0.0
2016-May-19 07:31N 52°31' E 004°21'0 0.0
2016-May-19 06:31N 52°31' E 004°21'0 0.1
2016-May-19 05:31N 52°31' E 004°21'0 0.0
2016-May-19 04:25N 52°31' E 004°21'0 0.0
2016-May-19 03:31N 52°31' E 004°21'0 0.0
2016-May-19 02:31N 52°31' E 004°21'0 0.0
2016-May-19 01:31N 52°31' E 004°21'0 0.0
2016-May-19 00:31N 52°31' E 004°21'0 0.0
2016-May-18 23:31N 52°31' E 004°21'0 0.1
2016-May-18 22:31N 52°31' E 004°21'0 0.0
2016-May-18 21:31N 52°31' E 004°21'0 0.0
2016-May-18 20:31N 52°31' E 004°21'0 0.0
2016-May-18 19:32N 52°31' E 004°21'0 0.0
2016-May-18 18:29N 52°31' E 004°21'0 0.1
2016-May-18 17:29N 52°31' E 004°21'0 0.0
2016-May-18 16:32N 52°31' E 004°21'0 0.0
2016-May-18 15:29N 52°31' E 004°21'0 0.0
2016-May-18 14:32N 52°31' E 004°21'0 0.0
2016-May-18 13:29N 52°31' E 004°21'0 0.0
2016-May-18 12:29N 52°31' E 004°21'0 0.0
2016-May-18 11:29N 52°31' E 004°21'0 0.0
2016-May-18 10:29N 52°31' E 004°21'0 0.0
2016-May-18 09:29N 52°31' E 004°21'0 0.0
2016-May-18 08:32N 52°31' E 004°21'0 0.0
2016-May-18 07:32N 52°31' E 004°21'0 0.1
2016-May-18 06:26N 52°31' E 004°21'0 0.0
2016-May-18 05:33N 52°31' E 004°21'0 0.0
2016-May-18 04:30N 52°31' E 004°21'0 0.0
2016-May-18 03:33N 52°31' E 004°21'0 0.0
2016-May-18 02:33N 52°31' E 004°21'0 0.0
2016-May-18 01:33N 52°31' E 004°21'0 0.0
2016-May-18 00:30N 52°31' E 004°21'0 0.0
2016-May-17 23:33N 52°31' E 004°21'0 0.0
2016-May-17 22:33N 52°31' E 004°21'0 0.1
2016-May-17 21:33N 52°31' E 004°21'0 0.0
2016-May-17 20:30N 52°31' E 004°21'0 0.0
2016-May-17 19:33N 52°31' E 004°21'0 0.0
2016-May-17 18:33N 52°31' E 004°21'0 0.0
2016-May-17 17:33N 52°31' E 004°21'0 0.1
2016-May-17 16:30N 52°31' E 004°21'0 0.0
2016-May-17 15:33N 52°31' E 004°21'0 0.0
2016-May-17 14:33N 52°31' E 004°21'0 0.0
2016-May-17 13:33N 52°31' E 004°21'0 0.0
2016-May-17 12:30N 52°31' E 004°21'0 0.0
2016-May-17 11:33N 52°31' E 004°21'0 0.0
2016-May-17 10:33N 52°31' E 004°21'0 0.1
2016-May-17 09:27N 52°31' E 004°21'0 0.0
2016-May-17 08:30N 52°31' E 004°21'0 0.0
2016-May-17 07:33N 52°31' E 004°21'0 0.0
2016-May-17 06:30N 52°31' E 004°21'0 0.0
2016-May-17 05:30N 52°31' E 004°21'0 0.1
2016-May-17 04:33N 52°31' E 004°21'0 0.0
2016-May-17 03:33N 52°31' E 004°21'0 0.0
2016-May-17 02:30N 52°31' E 004°21'0 0.0
2016-May-17 01:33N 52°31' E 004°21'0 0.0
2016-May-17 00:33N 52°31' E 004°21'0 0.0
2016-May-16 23:33N 52°31' E 004°21'0 0.0
2016-May-16 22:33N 52°31' E 004°21'0 0.1
2016-May-16 21:31N 52°31' E 004°21'0 0.1
2016-May-16 20:31N 52°31' E 004°21'0 0.0
2016-May-16 19:22N 52°31' E 004°21'0 0.0
2016-May-16 18:28N 52°31' E 004°21'0 0.0
2016-May-16 17:28N 52°31' E 004°21'0 0.0
2016-May-16 16:29N 52°31' E 004°21'0 0.0
2016-May-16 15:32N 52°31' E 004°21'0 0.1
2016-May-16 14:32N 52°31' E 004°21'0 0.0
2016-May-16 13:27N 52°31' E 004°21'0 0.0
2016-May-16 12:31N 52°31' E 004°21'0 0.0
2016-May-16 11:16N 52°31' E 004°21'0 0.0
2016-May-16 10:28N 52°31' E 004°21'0 0.1
2016-May-16 09:33N 52°31' E 004°21'0 0.1
2016-May-16 08:32N 52°31' E 004°21'0 0.0
2016-May-16 07:33N 52°31' E 004°21'0 0.0
2016-May-16 06:24N 52°31' E 004°21'0 0.0
2016-May-16 05:33N 52°31' E 004°21'0 0.0
2016-May-16 04:33N 52°31' E 004°21'0 0.0
2016-May-16 03:33N 52°31' E 004°21'0 0.0
2016-May-16 02:33N 52°31' E 004°21'0 0.0
2016-May-16 01:33N 52°31' E 004°21'0 0.1
2016-May-16 00:33N 52°31' E 004°21'0 0.0
2016-May-15 23:29N 52°31' E 004°21'0 0.0
2016-May-15 22:31N 52°31' E 004°21'0 0.1
2016-May-15 21:33N 52°31' E 004°21'0 0.1
2016-May-15 20:32N 52°31' E 004°21'0 0.0
2016-May-15 19:32N 52°31' E 004°21'0 0.0
2016-May-15 18:32N 52°31' E 004°21'0 0.0
2016-May-15 17:32N 52°31' E 004°21'0 0.0
2016-May-15 16:32N 52°31' E 004°21'0 0.0
2016-May-15 15:32N 52°31' E 004°21'0 0.0
2016-May-15 14:29N 52°31' E 004°21'0 0.0
2016-May-15 13:32N 52°31' E 004°21'0 0.0
2016-May-15 12:33N 52°31' E 004°21'0 0.1
2016-May-15 11:33N 52°31' E 004°21'0 0.0
2016-May-15 10:33N 52°31' E 004°21'0 0.1
2016-May-15 09:33N 52°31' E 004°21'9 9.5
2016-May-15 08:33N 52°22' E 004°19'1 1.4
2016-May-15 07:33N 52°22' E 004°17'3 3.2
2016-May-15 06:33N 52°26' E 004°16'6 5.6
2016-May-15 05:33N 52°29' E 004°09'8 8.1
2016-May-15 04:33N 52°27' E 003°56'9 7.9
2016-May-15 03:28N 52°25' E 003°42'75 9.4
2016-May-14 19:31N 51°31' E 002°17'1010.4
2016-May-14 18:33N 51°22' E 002°10'1010.4
2016-May-14 17:33N 51°13' E 002°02'1010.4
2016-May-14 16:33N 51°08' E 001°48'1010.1
2016-May-14 15:33N 51°01' E 001°37'9 9.3
2016-May-14 14:33N 50°54' E 001°27'9 8.8
2016-May-14 13:33N 50°45' E 001°23'  
Track history (hours):
 
Tides and Currents Weather Stations Pressure Air Temp Water Temp Dewpoint Dewpoint Depression Visibility Wind Speed Wind Dir Waves Ship Positions

Hanseatic Scout

Last reported at 2016-May-24 01:33 UTC. Time now 2016-May-24 15:46 UTC.
Position N 49°26' E 000°49'.

Length 89 m; draft 3.2 m.

Type: Ship. MMSI: 304867000.

Date/timePositionNaut miles runAvg speedWind from/ knotsBaromVisibWave heightAir tempDewpointWater temp
2016-May-24 01:33N 49°26' E 000°49'6 6.2
2016-May-24 00:33N 49°29' E 000°40'7 7.0
2016-May-23 23:33N 49°29' E 000°29'1212.1
2016-May-23 22:34N 49°26' E 000°11'1110.7
2016-May-23 21:33N 49°28' W 000°05'0 0.3
2016-May-23 20:33N 49°28' W 000°05'0 0.0
2016-May-23 19:34N 49°28' W 000°05'0 0.0
2016-May-23 18:34N 49°28' W 000°05'0 0.0
2016-May-23 17:34N 49°28' W 000°05'0 0.0
2016-May-23 16:33N 49°28' W 000°05'0 0.0
2016-May-23 15:34N 49°28' W 000°05'0 0.0
2016-May-23 14:34N 49°28' W 000°05'0 0.0
2016-May-23 13:34N 49°28' W 000°05'0 0.0
2016-May-23 12:33N 49°28' W 000°05'0 0.0
2016-May-23 11:34N 49°28' W 000°05'0 0.0
2016-May-23 10:34N 49°28' W 000°05'0 0.0
2016-May-23 09:34N 49°28' W 000°05'0 0.0
2016-May-23 08:34N 49°28' W 000°05'0 0.0
2016-May-23 07:34N 49°28' W 000°05'0 0.0
2016-May-23 06:34N 49°28' W 000°05'0 0.0
2016-May-23 05:33N 49°28' W 000°05'0 0.0
2016-May-23 04:34N 49°28' W 000°05'0 0.0
2016-May-23 03:33N 49°28' W 000°05'0 0.0
2016-May-23 02:34N 49°28' W 000°05'0 0.0
2016-May-23 01:33N 49°28' W 000°05'0 0.0
2016-May-23 00:33N 49°28' W 000°05'0 0.0
2016-May-22 23:33N 49°28' W 000°05'0 0.0
2016-May-22 22:33N 49°28' W 000°05'0 0.0
2016-May-22 21:33N 49°28' W 000°05'0 0.0
2016-May-22 20:34N 49°28' W 000°05'0 0.0
2016-May-22 19:34N 49°28' W 000°05'0 0.0
2016-May-22 18:33N 49°28' W 000°05'0 0.1
2016-May-22 17:33N 49°28' W 000°05'0 0.0
2016-May-22 16:34N 49°28' W 000°05'0 0.0
2016-May-22 15:33N 49°28' W 000°05'0 0.0
2016-May-22 14:34N 49°28' W 000°05'0 0.0
2016-May-22 13:34N 49°28' W 000°05'0 0.1
2016-May-22 12:34N 49°28' W 000°05'0 0.0
2016-May-22 11:34N 49°28' W 000°05'0 0.1
2016-May-22 10:34N 49°28' W 000°05'0 0.0
2016-May-22 09:34N 49°28' W 000°05'0 0.0
2016-May-22 08:33N 49°28' W 000°05'0 0.1
2016-May-22 07:34N 49°28' W 000°05'7 6.9
2016-May-22 06:33N 49°34' W 000°12'1212.2
2016-May-22 05:33N 49°46' W 000°12'1212.2
2016-May-22 04:33N 49°58' W 000°09'1212.4
2016-May-22 03:33N 50°10' W 000°07'1212.1
2016-May-22 02:34N 50°22' W 000°05'8 8.5
2016-May-22 01:33N 50°29' E 000°03'7 6.9
2016-May-22 00:30N 50°32' E 000°14'6 6.9
2016-May-21 23:33N 50°34' E 000°24'10 7.2
2016-May-21 22:10N 50°38' E 000°38'31 8.6
2016-May-21 18:32N 50°58' E 001°16'1313.9
2016-May-21 17:34N 51°07' E 001°33'1212.3
2016-May-21 16:34N 51°15' E 001°47'1111.0
2016-May-21 15:33N 51°25' E 001°55'10 9.8
2016-May-21 14:34N 51°33' E 002°04'9 9.5
2016-May-21 13:34N 51°40' E 002°15'8210.9
2016-May-21 06:04N 52°31' E 003°59'611.5
2016-May-21 05:33N 52°31' E 004°08'1111.5
2016-May-21 04:33N 52°29' E 004°27'6 6.1
2016-May-21 03:33N 52°28' E 004°36'0 0.0
2016-May-21 02:32N 52°28' E 004°36'0 0.0
2016-May-21 01:32N 52°28' E 004°36'0 0.0
2016-May-21 00:32N 52°28' E 004°36'0 0.0
2016-May-20 23:32N 52°28' E 004°36'0 0.0
2016-May-20 22:32N 52°28' E 004°36'0 0.0
2016-May-20 21:32N 52°28' E 004°36'0 0.0
2016-May-20 20:32N 52°28' E 004°36'0 0.0
2016-May-20 19:32N 52°28' E 004°36'0 0.0
2016-May-20 18:32N 52°28' E 004°36'0 0.0
2016-May-20 17:32N 52°28' E 004°36'0 0.0
2016-May-20 16:32N 52°28' E 004°36'0 0.0
2016-May-20 15:32N 52°28' E 004°36'0 0.0
2016-May-20 14:32N 52°28' E 004°36'0 0.0
2016-May-20 13:32N 52°28' E 004°36'0 0.0
2016-May-20 12:32N 52°28' E 004°36'0 0.0
2016-May-20 11:32N 52°28' E 004°36'0 0.1
2016-May-20 10:32N 52°28' E 004°36'0 0.0
2016-May-20 09:32N 52°28' E 004°36'1 1.0
2016-May-20 08:34N 52°28' E 004°35'7 7.4
2016-May-20 07:33N 52°30' E 004°23'2 1.7
2016-May-20 06:31N 52°31' E 004°21'0 0.0
2016-May-20 05:31N 52°31' E 004°21'0 0.0
2016-May-20 04:28N 52°31' E 004°21'0 0.0
2016-May-20 03:22N 52°31' E 004°21'0 0.0
2016-May-20 02:31N 52°31' E 004°21'0 0.0
2016-May-20 01:31N 52°31' E 004°21'0 0.0
2016-May-20 00:31N 52°31' E 004°21'0 0.0
2016-May-19 23:25N 52°31' E 004°21'0 0.0
2016-May-19 22:31N 52°31' E 004°21'0 0.1
2016-May-19 21:28N 52°31' E 004°21'0 0.0
2016-May-19 20:31N 52°31' E 004°21'0 0.0
2016-May-19 19:31N 52°31' E 004°21'0 0.1
2016-May-19 18:31N 52°31' E 004°21'0 0.0
2016-May-19 17:31N 52°31' E 004°21'0 0.0
2016-May-19 16:31N 52°31' E 004°21'0 0.0
2016-May-19 15:31N 52°31' E 004°21'0 0.0
2016-May-19 14:19N 52°31' E 004°21'0 0.0
2016-May-19 13:25N 52°31' E 004°21'0 0.0
2016-May-19 12:31N 52°31' E 004°21'0 0.0
2016-May-19 11:31N 52°31' E 004°21'0 0.1
2016-May-19 10:31N 52°31' E 004°21'0 0.0
2016-May-19 09:31N 52°31' E 004°21'0 0.0
2016-May-19 08:31N 52°31' E 004°21'0 0.0
2016-May-19 07:31N 52°31' E 004°21'0 0.0
2016-May-19 06:31N 52°31' E 004°21'0 0.1
2016-May-19 05:31N 52°31' E 004°21'0 0.0
2016-May-19 04:25N 52°31' E 004°21'0 0.0
2016-May-19 03:31N 52°31' E 004°21'0 0.0
2016-May-19 02:31N 52°31' E 004°21'0 0.0
2016-May-19 01:31N 52°31' E 004°21'0 0.0
2016-May-19 00:31N 52°31' E 004°21'0 0.0
2016-May-18 23:31N 52°31' E 004°21'0 0.1
2016-May-18 22:31N 52°31' E 004°21'0 0.0
2016-May-18 21:31N 52°31' E 004°21'0 0.0
2016-May-18 20:31N 52°31' E 004°21'0 0.0
2016-May-18 19:32N 52°31' E 004°21'0 0.0
2016-May-18 18:29N 52°31' E 004°21'0 0.1
2016-May-18 17:29N 52°31' E 004°21'0 0.0
2016-May-18 16:32N 52°31' E 004°21'0 0.0
2016-May-18 15:29N 52°31' E 004°21'0 0.0
2016-May-18 14:32N 52°31' E 004°21'0 0.0
2016-May-18 13:29N 52°31' E 004°21'0 0.0
2016-May-18 12:29N 52°31' E 004°21'0 0.0
2016-May-18 11:29N 52°31' E 004°21'0 0.0
2016-May-18 10:29N 52°31' E 004°21'0 0.0
2016-May-18 09:29N 52°31' E 004°21'0 0.0
2016-May-18 08:32N 52°31' E 004°21'0 0.0
2016-May-18 07:32N 52°31' E 004°21'0 0.1
2016-May-18 06:26N 52°31' E 004°21'0 0.0
2016-May-18 05:33N 52°31' E 004°21'0 0.0
2016-May-18 04:30N 52°31' E 004°21'0 0.0
2016-May-18 03:33N 52°31' E 004°21'0 0.0
2016-May-18 02:33N 52°31' E 004°21'0 0.0
2016-May-18 01:33N 52°31' E 004°21'0 0.0
2016-May-18 00:30N 52°31' E 004°21'0 0.0
2016-May-17 23:33N 52°31' E 004°21'0 0.0
2016-May-17 22:33N 52°31' E 004°21'0 0.1
2016-May-17 21:33N 52°31' E 004°21'0 0.0
2016-May-17 20:30N 52°31' E 004°21'0 0.0
2016-May-17 19:33N 52°31' E 004°21'0 0.0
2016-May-17 18:33N 52°31' E 004°21'0 0.0
2016-May-17 17:33N 52°31' E 004°21'0 0.1
2016-May-17 16:30N 52°31' E 004°21'0 0.0
2016-May-17 15:33N 52°31' E 004°21'0 0.0
2016-May-17 14:33N 52°31' E 004°21'0 0.0
2016-May-17 13:33N 52°31' E 004°21'0 0.0
2016-May-17 12:30N 52°31' E 004°21'0 0.0
2016-May-17 11:33N 52°31' E 004°21'0 0.0
2016-May-17 10:33N 52°31' E 004°21'0 0.1
2016-May-17 09:27N 52°31' E 004°21'0 0.0
2016-May-17 08:30N 52°31' E 004°21'0 0.0
2016-May-17 07:33N 52°31' E 004°21'0 0.0
2016-May-17 06:30N 52°31' E 004°21'0 0.0
2016-May-17 05:30N 52°31' E 004°21'0 0.1
2016-May-17 04:33N 52°31' E 004°21'0 0.0
2016-May-17 03:33N 52°31' E 004°21'0 0.0
2016-May-17 02:30N 52°31' E 004°21'0 0.0
2016-May-17 01:33N 52°31' E 004°21'0 0.0
2016-May-17 00:33N 52°31' E 004°21'0 0.0
2016-May-16 23:33N 52°31' E 004°21'0 0.0
2016-May-16 22:33N 52°31' E 004°21'0 0.1
2016-May-16 21:31N 52°31' E 004°21'0 0.1
2016-May-16 20:31N 52°31' E 004°21'0 0.0
2016-May-16 19:22N 52°31' E 004°21'0 0.0
2016-May-16 18:28N 52°31' E 004°21'0 0.0
2016-May-16 17:28N 52°31' E 004°21'0 0.0
2016-May-16 16:29N 52°31' E 004°21'0 0.0
2016-May-16 15:32N 52°31' E 004°21'0 0.1
2016-May-16 14:32N 52°31' E 004°21'0 0.0
2016-May-16 13:27N 52°31' E 004°21'0 0.0
2016-May-16 12:31N 52°31' E 004°21'0 0.0
2016-May-16 11:16N 52°31' E 004°21'0 0.0
2016-May-16 10:28N 52°31' E 004°21'0 0.1
2016-May-16 09:33N 52°31' E 004°21'0 0.1
2016-May-16 08:32N 52°31' E 004°21'0 0.0
2016-May-16 07:33N 52°31' E 004°21'0 0.0
2016-May-16 06:24N 52°31' E 004°21'0 0.0
2016-May-16 05:33N 52°31' E 004°21'0 0.0
2016-May-16 04:33N 52°31' E 004°21'0 0.0
2016-May-16 03:33N 52°31' E 004°21'0 0.0
2016-May-16 02:33N 52°31' E 004°21'0 0.0
2016-May-16 01:33N 52°31' E 004°21'0 0.1
2016-May-16 00:33N 52°31' E 004°21'0 0.0
2016-May-15 23:29N 52°31' E 004°21'0 0.0
2016-May-15 22:31N 52°31' E 004°21'0 0.1
2016-May-15 21:33N 52°31' E 004°21'0 0.1
2016-May-15 20:32N 52°31' E 004°21'0 0.0
2016-May-15 19:32N 52°31' E 004°21'0 0.0
2016-May-15 18:32N 52°31' E 004°21'0 0.0
2016-May-15 17:32N 52°31' E 004°21'0 0.0
2016-May-15 16:32N 52°31' E 004°21'0 0.0
2016-May-15 15:32N 52°31' E 004°21'0 0.0
2016-May-15 14:29N 52°31' E 004°21'0 0.0
2016-May-15 13:32N 52°31' E 004°21'0 0.0
2016-May-15 12:33N 52°31' E 004°21'0 0.1
2016-May-15 11:33N 52°31' E 004°21'0 0.0
2016-May-15 10:33N 52°31' E 004°21'0 0.1
2016-May-15 09:33N 52°31' E 004°21'9 9.5
2016-May-15 08:33N 52°22' E 004°19'1 1.4
2016-May-15 07:33N 52°22' E 004°17'3 3.2
2016-May-15 06:33N 52°26' E 004°16'6 5.6
2016-May-15 05:33N 52°29' E 004°09'8 8.1
2016-May-15 04:33N 52°27' E 003°56'9 7.9
2016-May-15 03:28N 52°25' E 003°42'75 9.4
2016-May-14 19:31N 51°31' E 002°17'1010.4
2016-May-14 18:33N 51°22' E 002°10'1010.4
2016-May-14 17:33N 51°13' E 002°02'1010.4
2016-May-14 16:33N 51°08' E 001°48'1010.1
2016-May-14 15:33N 51°01' E 001°37'9 9.3
2016-May-14 14:33N 50°54' E 001°27'9 8.8
2016-May-14 13:33N 50°45' E 001°23'  

Dump ship's entire track history